createdAt,value
2022-09-28T00:01:33.458Z,92632.56
2022-09-28T00:16:35.739Z,92634.88
2022-09-28T00:31:37.556Z,92630.94
2022-09-28T00:46:39.067Z,92624.47
2022-09-28T01:01:40.531Z,92633.00
2022-09-28T01:16:45.103Z,92625.16
2022-09-28T01:31:51.288Z,92635.03
2022-09-28T01:46:53.799Z,92641.97
2022-09-28T02:02:06.343Z,92624.75
2022-09-28T02:17:09.684Z,92634.25
2022-09-28T02:32:11.332Z,92636.25
2022-09-28T02:47:22.541Z,92638.50
2022-09-28T03:02:25.024Z,92661.31
2022-09-28T03:17:26.532Z,92671.13
2022-09-28T03:32:28.012Z,92685.63
2022-09-28T03:47:29.463Z,92668.28
2022-09-28T04:02:31.018Z,92673.91
2022-09-28T04:17:36.480Z,92676.53
2022-09-28T04:32:40.985Z,92679.03
2022-09-28T04:47:42.452Z,92682.06
2022-09-28T05:02:44.112Z,92684.63
2022-09-28T05:17:45.638Z,92692.91
2022-09-28T05:32:47.351Z,92668.84
2022-09-28T05:47:48.918Z,92703.53
2022-09-28T06:02:57.491Z,92699.66
2022-09-28T06:18:10.060Z,92696.34
2022-09-28T06:33:12.852Z,92725.25
2022-09-28T06:48:15.067Z,92737.22
2022-09-28T07:03:18.978Z,92720.66
2022-09-28T07:18:20.566Z,92737.16
2022-09-28T07:33:22.113Z,92747.09
2022-09-28T07:48:23.700Z,92757.22
2022-09-28T08:03:25.151Z,92753.34
2022-09-28T08:18:26.641Z,92777.72
2022-09-28T08:33:28.725Z,92764.09
2022-09-28T08:48:51.791Z,92764.78
2022-09-28T09:03:58.542Z,92745.66
2022-09-28T09:19:17.350Z,92739.41
2022-09-28T09:34:30.667Z,92720.94
2022-09-28T09:49:40.293Z,92720.19
2022-09-28T10:04:44.640Z,92726.91
2022-09-28T10:19:46.387Z,92712.34
2022-09-28T10:34:50.842Z,92679.94
2022-09-28T10:49:53.931Z,92688.34
2022-09-28T11:04:57.334Z,92654.97
2022-09-28T11:20:24.698Z,92648.03
2022-09-28T11:35:32.395Z,92623.38
2022-09-28T11:50:36.884Z,92632.31
2022-09-28T12:05:41.276Z,92609.13
2022-09-28T12:20:45.079Z,92614.03
2022-09-28T12:36:06.790Z,92617.78
2022-09-28T12:51:27.175Z,92624.56
2022-09-28T13:06:45.232Z,92612.22
2022-09-28T13:21:55.733Z,92609.06
2022-09-28T13:37:19.867Z,92612.97
2022-09-28T13:52:27.155Z,92593.13
2022-09-28T14:07:34.661Z,92608.88
2022-09-28T14:22:47.282Z,92590.69
2022-09-28T14:38:08.706Z,92600.69
2022-09-28T14:53:13.536Z,92605.47
2022-09-28T15:08:15.380Z,92622.63
2022-09-28T15:23:24.423Z,92623.22
2022-09-28T15:38:26.013Z,92618.34
2022-09-28T15:53:27.776Z,92634.97
2022-09-28T16:08:45.515Z,92642.94
2022-09-28T16:23:55.715Z,92651.34
2022-09-28T16:38:57.320Z,92651.91
2022-09-28T16:54:31.873Z,92650.28
2022-09-28T17:09:34.987Z,92650.78
2022-09-28T17:24:37.037Z,92657.53
2022-09-28T17:39:38.500Z,92667.03
2022-09-28T17:54:39.974Z,92682.38
2022-09-28T18:09:41.540Z,92661.50
2022-09-28T18:24:43.262Z,92678.31
2022-09-28T18:39:45.357Z,92705.63
2022-09-28T18:54:46.865Z,92719.31
2022-09-28T19:09:48.411Z,92727.16
2022-09-28T19:24:49.959Z,92731.19
2022-09-28T19:39:51.518Z,92734.59
2022-09-28T19:55:00.002Z,92744.50
2022-09-28T20:10:01.547Z,92750.06
2022-09-28T20:25:03.220Z,92741.69
2022-09-28T20:40:05.081Z,92771.53
2022-09-28T20:55:06.660Z,92757.84
2022-09-28T21:10:09.194Z,92773.94
2022-09-28T21:25:10.667Z,92792.84
2022-09-28T21:40:12.184Z,92795.53
2022-09-28T21:55:13.722Z,92792.34
2022-09-28T22:16:13.447Z,92780.00
2022-09-28T22:31:16.505Z,92782.16
2022-09-28T22:46:19.409Z,92772.94
2022-09-28T23:01:25.372Z,92781.00
2022-09-28T23:16:27.122Z,92774.44
2022-09-28T23:31:30.150Z,92771.78
2022-09-28T23:46:32.416Z,92776.47
